Lynge, Denmark
Current Conditions -  °F | °C
As of 9:20 PM on Wednesday 28 Jan 2015 (Local Time) from EKRK Reporting Station
Light Snow Light Snow  
Wind Chill: 24°   Ceiling: 900
Heat Index: 36°   Visibility: 5mi
Dew Point: 34°   Wind: 24mph
Humidity: 93%   Direction: 200°SSW
Pressure: 28.97"   Gusts: NA
Location:  55.84°N, 12.28°E
Report Text: EKRK 282020Z AUTO 20021KT 8000NDV -RASN FEW007/// BKN009///OVC013/// 02/01 Q0981
Loading
Personal Weather Stations






























Interactive Weather Map New forecast layout! Learn more

10-Day Weather Forecast

Advertisements
Track Severe Weather on mobile